createdAt,value
2022-10-25T00:00:30.956Z,135.30435
2022-10-25T00:05:32.944Z,138.32177
2022-10-25T00:10:34.710Z,136.5
2022-10-25T00:15:36.608Z,131.23404
2022-10-25T00:20:38.520Z,130.10272
2022-10-25T00:25:40.261Z,125.71091
2022-10-25T00:30:42.034Z,123.06977
2022-10-25T00:35:44.016Z,120.5043
2022-10-25T00:40:46.007Z,119.49858
2022-10-25T00:45:47.810Z,118.50425
2022-10-25T00:50:49.617Z,119.49858
2022-10-25T00:55:51.408Z,117.03371
2022-10-25T01:00:53.078Z,116.54902
2022-10-25T01:05:54.876Z,112.76712
2022-10-25T01:10:56.367Z,110.93767
2022-10-25T01:15:57.806Z,112.30601
2022-10-25T01:20:59.380Z,112.76712
2022-10-25T01:26:00.893Z,114.63712
2022-10-25T01:31:02.447Z,114.63712
2022-10-25T01:36:04.555Z,115.58774
2022-10-25T01:41:06.018Z,114.16575
2022-10-25T01:46:07.771Z,114.63712
2022-10-25T01:51:09.357Z,113.23077
2022-10-25T01:56:10.827Z,115.11111
2022-10-25T02:01:12.692Z,116.54902
2022-10-25T02:06:14.877Z,118.0113
2022-10-25T02:11:16.328Z,120.5043
2022-10-25T02:16:17.945Z,126.24852
2022-10-25T02:21:19.828Z,127.33333
2022-10-25T02:26:21.459Z,126.78932
2022-10-25T02:31:22.889Z,129.54217
2022-10-25T02:36:24.698Z,131.23404
2022-10-25T02:41:26.122Z,130.10272
2022-10-25T02:46:27.591Z,130.66667
2022-10-25T02:51:29.128Z,130.66667
2022-10-25T02:56:30.643Z,132.3792
2022-10-25T03:01:32.199Z,131.23404
2022-10-25T03:06:34.234Z,130.10272
2022-10-25T03:11:35.887Z,127.33333
2022-10-25T03:16:37.649Z,131.80488
2022-10-25T03:21:41.885Z,127.8806
2022-10-25T03:26:43.701Z,124.64516
2022-10-25T03:31:45.278Z,124.11696
2022-10-25T03:36:47.113Z,121.52161
2022-10-25T03:41:48.660Z,119.49858
2022-10-25T03:46:50.123Z,121.01149
2022-10-25T03:51:53.965Z,118.50425
2022-10-25T03:56:59.551Z,118.0113
2022-10-25T04:02:01.547Z,119.49858
2022-10-25T04:07:03.615Z,121.52161
2022-10-25T04:12:05.571Z,116.06704
2022-10-25T04:17:07.304Z,112.30601
2022-10-25T04:22:09.428Z,115.11111
2022-10-25T04:27:11.466Z,121.52161
2022-10-25T04:32:13.302Z,121.01149
2022-10-25T04:37:15.727Z,111.84741
2022-10-25T04:42:17.732Z,126.78932
2022-10-25T04:47:19.476Z,119
2022-10-25T04:52:21.362Z,122.55072
2022-10-25T04:57:23.121Z,134.12346
2022-10-25T05:02:24.621Z,143.35275
2022-10-25T05:07:26.855Z,149.33333
2022-10-25T05:12:28.854Z,130.66667
2022-10-25T05:17:30.507Z,132.3792
2022-10-25T05:22:32.083Z,128.43114
2022-10-25T05:27:33.938Z,127.8806
2022-10-25T05:32:35.846Z,147.97351
2022-10-25T05:37:37.723Z,186.51969
2022-10-25T05:42:39.396Z,198.54545
2022-10-25T05:47:40.840Z,205.01695
2022-10-25T05:52:42.740Z,247.44828
2022-10-25T05:57:44.568Z,233.20188
2022-10-25T06:02:46.714Z,275.1828
2022-10-25T06:07:49.083Z,284.33149
2022-10-25T06:12:51.140Z,280.61202
2022-10-25T06:17:52.844Z,276.97297
2022-10-25T06:22:54.859Z,310.66667
2022-10-25T06:27:56.441Z,344
2022-10-25T06:32:59.849Z,390.37681
2022-10-25T06:38:02.574Z,365.91781
2022-10-25T06:43:04.222Z,421.51938
2022-10-25T06:48:05.822Z,393.63504
2022-10-25T06:53:07.479Z,407.15789
2022-10-25T06:58:09.007Z,387.16547
2022-10-25T07:03:10.478Z,396.94118
2022-10-25T07:08:13.028Z,417.84615
2022-10-25T07:13:14.508Z,509.13761
2022-10-25T07:18:16.283Z,384
2022-10-25T07:23:18.314Z,461.64706
2022-10-25T07:28:19.889Z,421.51938
2022-10-25T07:33:21.483Z,414.22901
2022-10-25T07:38:26.994Z,484.35088
2022-10-25T07:43:29.421Z,457.33333
2022-10-25T07:48:31.019Z,425.25
2022-10-25T07:53:32.681Z,380.87943
2022-10-25T07:58:34.610Z,400.2963
2022-10-25T08:03:36.503Z,331.42138
2022-10-25T08:08:38.212Z,360.21622
2022-10-25T08:13:39.907Z,448.91803
2022-10-25T08:18:41.350Z,403.70149
2022-10-25T08:23:42.862Z,444.81301
2022-10-25T08:28:44.528Z,444.81301
2022-10-25T08:33:46.104Z,396.94118
2022-10-25T08:38:47.925Z,421.51938
2022-10-25T08:43:49.688Z,387.16547
2022-10-25T08:48:51.306Z,421.51938
2022-10-25T08:58:54.384Z,410.66667
2022-10-25T09:03:55.811Z,448.91803
2022-10-25T09:08:57.448Z,457.33333
2022-10-25T09:13:58.888Z,384
2022-10-25T09:19:00.487Z,384
2022-10-25T09:24:02.365Z,425.25
2022-10-25T09:29:03.962Z,432.88889
2022-10-25T09:34:05.450Z,440.77419
2022-10-25T09:39:07.062Z,410.66667
2022-10-25T09:44:08.553Z,461.64706
2022-10-25T09:49:10.247Z,440.77419
2022-10-25T09:54:12.026Z,453.09091
2022-10-25T09:59:13.970Z,484.35088
2022-10-25T10:04:15.902Z,417.84615
2022-10-25T10:09:17.861Z,432.88889
2022-10-25T10:14:19.656Z,514.37037
2022-10-25T10:19:21.473Z,444.81301
2022-10-25T10:24:23.268Z,429.03937
2022-10-25T10:29:25.070Z,432.88889
2022-10-25T10:34:26.872Z,509.13761
2022-10-25T10:39:28.983Z,547.92157
2022-10-25T10:44:30.758Z,494
2022-10-25T10:49:32.328Z,566.22222
2022-10-25T10:54:33.858Z,566.22222
2022-10-25T10:59:35.421Z,519.70093
2022-10-25T11:04:37.091Z,519.70093
2022-10-25T11:09:39.056Z,566.22222
2022-10-25T11:14:40.786Z,504
2022-10-25T11:19:42.464Z,644
2022-10-25T11:24:44.277Z,686.16867
2022-10-25T11:29:46.240Z,579.05155
2022-10-25T11:34:47.989Z,628.44444
2022-10-25T11:39:49.999Z,668.70588
2022-10-25T11:44:51.475Z,606.36559
2022-10-25T11:49:56.829Z,585.66667
2022-10-25T11:54:58.886Z,519.70093
2022-10-25T12:00:00.755Z,553.90099
2022-10-25T12:05:02.202Z,579.05155
2022-10-25T12:10:03.960Z,560
2022-10-25T12:15:05.428Z,547.92157
2022-10-25T12:20:07.316Z,695.21951
2022-10-25T12:25:09.120Z,787.83562
2022-10-25T12:30:10.799Z,849.88235
2022-10-25T12:35:12.274Z,863.40299
2022-10-25T12:40:14.213Z,765.33333
2022-10-25T12:45:15.734Z,599.31915
2022-10-25T12:55:19.713Z,628.44444
2022-10-25T13:00:21.617Z,695.21951
2022-10-25T13:05:23.205Z,754.52632
2022-10-25T13:15:27.256Z,863.40299
2022-10-25T13:20:29.131Z,1084.74074
2022-10-25T13:25:30.781Z,921.77778
2022-10-25T13:30:32.684Z,988.0678
2022-10-25T13:35:34.677Z,1151.84314
2022-10-25T13:40:37.818Z,1044
2022-10-25T13:45:39.240Z,1312.88889
2022-10-25T13:50:40.708Z,1484
2022-10-25T13:55:42.332Z,1608.86486
2022-10-25T14:00:47.798Z,1565.05263
2022-10-25T14:05:53.124Z,1283.13043
2022-10-25T14:10:55.438Z,1006.06897
2022-10-25T14:15:56.973Z,811.60563
2022-10-25T14:20:58.502Z,970.66667
2022-10-25T14:26:00.133Z,824
2022-10-25T14:31:01.782Z,799.55556
2022-10-25T14:36:03.251Z,811.60563
2022-10-25T14:41:05.088Z,723.74684
2022-10-25T14:46:06.594Z,519.70093
2022-10-25T14:51:08.222Z,652.04598
2022-10-25T14:56:09.785Z,572.57143
2022-10-25T15:01:11.660Z,628.44444
2022-10-25T15:06:13.415Z,592.42105
2022-10-25T15:11:21.722Z,547.92157
2022-10-25T15:16:23.537Z,560
2022-10-25T15:21:25.307Z,475.03448
2022-10-25T15:26:27.322Z,470.49573
2022-10-25T15:31:29.135Z,530.66667
2022-10-25T15:36:31.102Z,585.66667
2022-10-25T15:41:33.350Z,542.05825
2022-10-25T15:46:35.149Z,547.92157
2022-10-25T15:51:36.967Z,453.09091
2022-10-25T15:56:38.916Z,302.13953
2022-10-25T16:01:40.937Z,319.60976
2022-10-25T16:06:44.134Z,349.26316
2022-10-25T16:11:47.263Z,354.66667
2022-10-25T16:16:49.247Z,351.94702
2022-10-25T16:21:51.269Z,321.91411
2022-10-25T16:26:53.510Z,298.02299
2022-10-25T16:31:55.803Z,273.41176
2022-10-25T16:36:57.507Z,252
2022-10-25T16:41:59.598Z,241.58454
2022-10-25T16:47:01.325Z,207.24786
2022-10-25T16:52:03.010Z,192.3871
2022-10-25T16:57:04.671Z,194.4065
2022-10-25T17:02:07.111Z,226.56881
2022-10-25T17:07:09.124Z,214.17544
2022-10-25T17:12:11.491Z,197.49794
2022-10-25T17:17:13.756Z,167.18841
2022-10-25T17:22:15.868Z,190.4
2022-10-25T17:27:17.716Z,199.60166
2022-10-25T17:32:20.096Z,194.4065
2022-10-25T17:37:22.199Z,200.66667
2022-10-25T17:42:24.676Z,199.60166
2022-10-25T17:47:26.328Z,196.45902
2022-10-25T17:52:28.080Z,195.42857
2022-10-25T17:57:29.812Z,192.3871
2022-10-25T18:02:31.655Z,181.83784
2022-10-25T18:07:34.997Z,195.42857
2022-10-25T18:12:37.161Z,153.52381
2022-10-25T18:17:38.733Z,167.18841
2022-10-25T18:22:40.392Z,184.625
2022-10-25T18:27:42.082Z,211.82609
2022-10-25T18:32:43.746Z,215.36564
2022-10-25T18:37:45.368Z,216.56637
2022-10-25T18:42:47.876Z,208.37768
2022-10-25T18:47:49.642Z,205.01695
2022-10-25T18:52:51.652Z,203.91561
2022-10-25T18:57:53.436Z,197.49794
2022-10-25T19:02:55.131Z,188.44444
2022-10-25T19:07:56.909Z,181.83784
2022-10-25T19:12:58.528Z,169.64103
2022-10-25T19:18:00.084Z,173.85075
2022-10-25T19:23:01.738Z,185.56863
2022-10-25T19:28:03.399Z,172.14815
2022-10-25T19:33:04.851Z,174.71161
2022-10-25T19:38:06.402Z,156.41379
2022-10-25T19:43:08.159Z,165.58273
2022-10-25T19:48:10.154Z,167.18841
2022-10-25T19:53:11.953Z,165.58273
2022-10-25T19:58:13.991Z,158.63415
2022-10-25T20:03:15.886Z,168.81752
2022-10-25T20:08:17.673Z,173.85075
2022-10-25T20:13:19.755Z,166.38267
2022-10-25T20:18:21.712Z,158.63415
2022-10-25T20:23:23.482Z,158.63415
2022-10-25T20:28:25.195Z,161.66784
2022-10-25T20:33:27.008Z,162.43972
2022-10-25T20:38:29.070Z,169.64103
2022-10-25T20:43:30.701Z,168.81752
2022-10-25T20:48:32.166Z,173.85075
2022-10-25T20:53:33.752Z,184.625
2022-10-25T20:58:35.263Z,187.47826
2022-10-25T21:03:37.143Z,194.4065
2022-10-25T21:08:38.802Z,194.4065
2022-10-25T21:13:40.795Z,194.4065
2022-10-25T21:18:42.822Z,198.54545
2022-10-25T21:23:44.734Z,203.91561
2022-10-25T21:28:46.646Z,206.12766
2022-10-25T21:33:50.180Z,199.60166
2022-10-25T21:38:58.001Z,191.38956
2022-10-25T21:43:59.934Z,192.3871
2022-10-25T21:49:01.535Z,191.38956
2022-10-25T21:54:03.021Z,190.4
2022-10-25T21:59:05.041Z,183.68872
2022-10-25T22:04:06.702Z,190.4
2022-10-25T22:09:08.321Z,196.45902
2022-10-25T22:14:10.088Z,199.60166
2022-10-25T22:19:11.818Z,203.91561
2022-10-25T22:24:13.649Z,210.66667
2022-10-25T22:29:15.765Z,205.01695
2022-10-25T22:34:17.845Z,198.54545
2022-10-25T22:39:19.517Z,197.49794
2022-10-25T22:49:24.005Z,197.49794
2022-10-25T22:54:25.762Z,195.42857
2022-10-25T22:59:27.716Z,208.37768
2022-10-25T23:04:29.663Z,210.66667
2022-10-25T23:09:31.621Z,172.99628
2022-10-25T23:14:33.730Z,138.93671
2022-10-25T23:19:35.838Z,143.35275
2022-10-25T23:24:37.764Z,148.65116
2022-10-25T23:29:39.782Z,144
2022-10-25T23:34:41.663Z,160.14035
2022-10-25T23:39:43.538Z,188.44444
2022-10-25T23:44:45.494Z,174.71161
2022-10-25T23:49:47.265Z,181.83784
2022-10-25T23:54:49.055Z,180.92308
2022-10-25T23:59:50.986Z,195.42857
